createdAt,value
2022-12-15T00:02:14.871Z,2.86
2022-12-15T00:05:00.096Z,2.52
2022-12-15T00:07:45.387Z,2.38
2022-12-15T00:10:30.567Z,2.22
2022-12-15T00:13:15.732Z,2.80
2022-12-15T00:16:00.765Z,3.05
2022-12-15T00:18:46.089Z,3.20
2022-12-15T00:21:31.167Z,3.47
2022-12-15T00:24:16.329Z,3.40
2022-12-15T00:27:01.448Z,3.01
2022-12-15T00:29:46.574Z,2.40
2022-12-15T00:32:31.757Z,2.47
2022-12-15T00:35:17.168Z,2.86
2022-12-15T00:38:02.547Z,2.70
2022-12-15T00:40:29.168Z,2.46
2022-12-15T00:43:00.267Z,2.19
2022-12-15T00:45:46.877Z,1.97
2022-12-15T00:48:13.663Z,2.50
2022-12-15T00:50:52.419Z,2.54
2022-12-15T00:53:40.918Z,2.63
2022-12-15T00:56:26.946Z,3.04
2022-12-15T00:59:12.210Z,2.62
2022-12-15T01:01:57.359Z,3.45
2022-12-15T01:04:42.466Z,2.81
2022-12-15T01:07:30.939Z,3.14
2022-12-15T01:10:16.441Z,3.23
2022-12-15T01:13:01.967Z,3.11
2022-12-15T01:15:47.220Z,3.43
2022-12-15T01:18:32.315Z,3.14
2022-12-15T01:21:02.298Z,2.51
2022-12-15T01:23:29.619Z,2.82
2022-12-15T01:25:59.058Z,3.04
2022-12-15T01:28:25.948Z,3.07
2022-12-15T01:30:52.829Z,3.52
2022-12-15T01:33:20.086Z,3.72
2022-12-15T01:36:03.047Z,3.68
2022-12-15T01:38:29.897Z,3.93
2022-12-15T01:41:06.116Z,3.83
2022-12-15T01:43:51.459Z,3.31
2022-12-15T01:46:20.522Z,3.76
2022-12-15T01:48:49.416Z,3.85
2022-12-15T01:51:34.872Z,4.16
2022-12-15T01:54:01.615Z,4.08
2022-12-15T01:56:35.529Z,4.00
2022-12-15T01:59:08.286Z,4.17
2022-12-15T02:01:35.366Z,4.08
2022-12-15T02:04:06.717Z,4.33
2022-12-15T02:06:33.341Z,4.40
2022-12-15T02:09:01.008Z,4.46
2022-12-15T02:11:30.879Z,4.33
2022-12-15T02:13:57.600Z,4.40
2022-12-15T02:16:33.718Z,4.12
2022-12-15T02:19:00.449Z,4.12
2022-12-15T02:21:30.128Z,4.21
2022-12-15T02:23:56.827Z,4.33
2022-12-15T02:26:38.888Z,4.30
2022-12-15T02:29:05.486Z,4.38
2022-12-15T02:31:52.319Z,4.40
2022-12-15T02:34:33.099Z,4.53
2022-12-15T02:37:03.305Z,4.49
2022-12-15T02:39:30.145Z,4.15
2022-12-15T02:41:56.909Z,3.17
2022-12-15T02:44:23.537Z,3.16
2022-12-15T02:47:10.195Z,2.88
2022-12-15T02:50:08.314Z,3.39
2022-12-15T02:52:38.055Z,3.11
2022-12-15T02:55:04.666Z,3.55
2022-12-15T02:57:37.437Z,3.68
2022-12-15T03:00:06.987Z,3.85
2022-12-15T03:02:38.075Z,3.66
2022-12-15T03:05:05.399Z,3.84
2022-12-15T03:07:31.997Z,3.95
2022-12-15T03:10:00.770Z,3.83
2022-12-15T03:12:29.857Z,3.70
2022-12-15T03:14:56.517Z,3.71
2022-12-15T03:17:23.127Z,3.85
2022-12-15T03:19:49.945Z,3.85
2022-12-15T03:22:16.850Z,3.79
2022-12-15T03:24:43.467Z,3.87
2022-12-15T03:27:10.719Z,3.71
2022-12-15T03:29:37.537Z,3.74
2022-12-15T03:32:04.489Z,3.76
2022-12-15T03:34:31.168Z,3.81
2022-12-15T03:36:58.276Z,3.87
2022-12-15T03:39:24.955Z,3.92
2022-12-15T03:41:51.596Z,3.79
2022-12-15T03:44:18.259Z,3.81
2022-12-15T03:46:46.307Z,3.69
2022-12-15T03:49:13.079Z,3.58
2022-12-15T03:51:39.791Z,3.84
2022-12-15T03:54:07.575Z,3.67
2022-12-15T03:56:34.528Z,3.77
2022-12-15T03:59:01.208Z,3.91
2022-12-15T04:01:32.138Z,3.95
2022-12-15T04:04:12.989Z,3.94
2022-12-15T04:06:39.647Z,4.02
2022-12-15T04:09:06.388Z,3.60
2022-12-15T04:11:33.146Z,3.92
2022-12-15T04:13:59.906Z,3.97
2022-12-15T04:16:26.944Z,4.06
2022-12-15T04:19:13.786Z,3.88
2022-12-15T04:21:40.477Z,3.56
2022-12-15T04:24:25.607Z,3.08
2022-12-15T04:27:10.668Z,3.49
2022-12-15T04:29:58.998Z,3.54
2022-12-15T04:32:44.717Z,3.60
2022-12-15T04:35:35.801Z,3.64
2022-12-15T04:38:21.060Z,3.69
2022-12-15T04:41:06.343Z,3.55
2022-12-15T04:43:52.077Z,3.79
2022-12-15T04:46:37.299Z,3.81
2022-12-15T04:49:22.659Z,3.85
2022-12-15T04:52:07.537Z,3.87
2022-12-15T04:54:53.335Z,3.92
2022-12-15T04:57:39.090Z,3.82
2022-12-15T05:00:24.689Z,3.83
2022-12-15T05:03:13.671Z,3.72
2022-12-15T05:06:03.727Z,3.90
2022-12-15T05:08:50.148Z,3.62
2022-12-15T05:11:36.130Z,2.81
2022-12-15T05:14:21.391Z,1.65
2022-12-15T05:17:06.433Z,2.68
2022-12-15T05:19:51.767Z,2.85
2022-12-15T05:22:39.158Z,3.19
2022-12-15T05:25:24.869Z,2.76
2022-12-15T05:28:10.237Z,2.93
2022-12-15T05:30:55.299Z,3.00
2022-12-15T05:33:22.007Z,3.00
2022-12-15T05:35:48.859Z,2.92
2022-12-15T05:38:15.817Z,1.79
2022-12-15T05:40:42.555Z,2.09
2022-12-15T05:43:09.408Z,2.50
2022-12-15T05:45:36.060Z,2.66
2022-12-15T05:48:02.686Z,2.54
2022-12-15T05:50:29.359Z,2.83
2022-12-15T05:52:58.276Z,1.91
2022-12-15T05:55:24.939Z,2.19
2022-12-15T05:57:52.529Z,1.75
2022-12-15T06:00:19.749Z,1.28
2022-12-15T06:02:46.489Z,1.97
2022-12-15T06:05:13.189Z,1.81
2022-12-15T06:07:39.825Z,2.00
2022-12-15T06:10:06.678Z,2.03
2022-12-15T06:12:33.376Z,1.37
2022-12-15T06:15:00.054Z,1.72
2022-12-15T06:17:27.769Z,2.36
2022-12-15T06:19:54.467Z,2.60
2022-12-15T06:22:24.010Z,2.66
2022-12-15T06:24:51.387Z,2.94
2022-12-15T06:27:18.337Z,2.63
2022-12-15T06:29:45.422Z,2.79
2022-12-15T06:32:12.075Z,2.32
2022-12-15T06:34:38.889Z,1.30
2022-12-15T06:37:07.887Z,1.58
2022-12-15T06:39:34.904Z,2.52
2022-12-15T06:42:01.818Z,2.52
2022-12-15T06:44:28.750Z,2.53
2022-12-15T06:46:55.698Z,2.39
2022-12-15T06:49:22.515Z,2.72
2022-12-15T06:51:49.847Z,2.03
2022-12-15T06:54:18.008Z,2.34
2022-12-15T06:56:44.690Z,2.66
2022-12-15T06:59:11.997Z,2.83
2022-12-15T07:01:38.957Z,2.14
2022-12-15T07:04:06.282Z,2.42
2022-12-15T07:06:38.404Z,2.48
2022-12-15T07:09:12.734Z,2.72
2022-12-15T07:11:40.723Z,2.78
2022-12-15T07:14:07.491Z,3.16
2022-12-15T07:16:34.440Z,3.02
2022-12-15T07:19:01.289Z,2.79
2022-12-15T07:21:28.089Z,3.29
2022-12-15T07:23:56.746Z,3.01
2022-12-15T07:26:24.476Z,3.45
2022-12-15T07:28:51.579Z,3.03
2022-12-15T07:31:18.541Z,3.51
2022-12-15T07:33:45.647Z,2.90
2022-12-15T07:36:12.458Z,2.75
2022-12-15T07:38:39.302Z,2.28
2022-12-15T07:41:07.042Z,2.24
2022-12-15T07:43:35.053Z,2.23
2022-12-15T07:46:04.077Z,2.40
2022-12-15T07:48:32.947Z,2.18
2022-12-15T07:51:08.475Z,2.65
2022-12-15T07:53:38.509Z,2.29
2022-12-15T07:56:07.996Z,2.14
2022-12-15T07:58:38.042Z,1.64
2022-12-15T08:01:07.381Z,2.71
2022-12-15T08:03:36.066Z,2.33
2022-12-15T08:06:07.037Z,2.49
2022-12-15T08:08:35.039Z,3.17
2022-12-15T08:11:08.269Z,3.13
2022-12-15T08:14:01.837Z,2.78
2022-12-15T08:16:22.528Z,2.80
2022-12-15T08:18:49.900Z,3.44
2022-12-15T08:21:17.621Z,3.32
2022-12-15T08:23:45.266Z,3.40
2022-12-15T08:26:16.406Z,3.20
2022-12-15T08:28:43.674Z,3.09
2022-12-15T08:31:16.606Z,3.24
2022-12-15T08:33:50.056Z,3.29
2022-12-15T08:36:19.857Z,3.67
2022-12-15T08:38:46.527Z,4.09
2022-12-15T08:41:21.185Z,3.79
2022-12-15T08:43:49.410Z,3.95
2022-12-15T08:46:20.413Z,3.91
2022-12-15T08:48:48.149Z,3.40
2022-12-15T08:51:15.003Z,3.79
2022-12-15T08:53:42.235Z,3.34
2022-12-15T08:56:12.473Z,4.09
2022-12-15T08:58:39.318Z,4.25
2022-12-15T09:01:07.617Z,4.05
2022-12-15T09:03:35.949Z,3.95
2022-12-15T09:06:08.363Z,3.30
2022-12-15T09:08:35.569Z,3.15
2022-12-15T09:11:02.529Z,3.16
2022-12-15T09:13:31.666Z,3.03
2022-12-15T09:16:14.488Z,3.32
2022-12-15T09:18:46.174Z,2.95
2022-12-15T09:21:15.454Z,3.58
2022-12-15T09:23:42.603Z,3.74
2022-12-15T09:26:14.540Z,4.09
2022-12-15T09:28:41.954Z,3.87
2022-12-15T09:31:22.784Z,3.82
2022-12-15T09:33:50.622Z,3.49
2022-12-15T09:36:17.455Z,3.57
2022-12-15T09:38:44.854Z,3.78
2022-12-15T09:41:17.760Z,3.84
2022-12-15T09:43:47.313Z,3.60
2022-12-15T09:46:29.656Z,3.95
2022-12-15T09:48:58.454Z,3.67
2022-12-15T09:51:38.753Z,3.35
2022-12-15T09:54:06.055Z,3.83
2022-12-15T09:56:41.077Z,3.38
2022-12-15T09:59:27.985Z,3.22
2022-12-15T10:02:15.214Z,3.71
2022-12-15T10:05:02.264Z,3.52
2022-12-15T10:07:30.056Z,3.39
2022-12-15T10:09:56.983Z,3.68
2022-12-15T10:12:28.861Z,3.87
2022-12-15T10:15:06.775Z,3.87
2022-12-15T10:17:33.547Z,3.45
2022-12-15T10:20:00.205Z,3.45
2022-12-15T10:22:30.387Z,3.61
2022-12-15T10:25:12.468Z,3.62
2022-12-15T10:28:00.036Z,4.30
2022-12-15T10:30:26.961Z,3.90
2022-12-15T10:33:19.541Z,3.75
2022-12-15T10:35:49.962Z,4.11
2022-12-15T10:38:40.566Z,4.48
2022-12-15T10:41:12.296Z,5.03
2022-12-15T10:43:43.606Z,5.37
2022-12-15T10:46:24.916Z,5.14
2022-12-15T10:48:52.805Z,5.10
2022-12-15T10:51:19.647Z,5.40
2022-12-15T10:53:51.973Z,5.67
2022-12-15T10:56:28.860Z,5.11
2022-12-15T10:59:00.892Z,4.97
2022-12-15T11:01:31.411Z,5.45
2022-12-15T11:03:58.584Z,5.47
2022-12-15T11:06:31.043Z,5.78
2022-12-15T11:09:08.532Z,5.99
2022-12-15T11:12:12.080Z,5.73
2022-12-15T11:15:02.269Z,4.68
2022-12-15T11:17:43.936Z,5.28
2022-12-15T11:20:17.463Z,5.60
2022-12-15T11:22:51.262Z,5.77
2022-12-15T11:25:25.395Z,5.16
2022-12-15T11:27:56.851Z,4.17
2022-12-15T11:30:31.623Z,4.90
2022-12-15T11:33:02.295Z,4.27
2022-12-15T11:35:51.025Z,5.09
2022-12-15T11:38:40.943Z,4.67
2022-12-15T11:41:26.365Z,4.33
2022-12-15T11:44:13.694Z,4.02
2022-12-15T11:46:44.402Z,4.25
2022-12-15T11:49:22.096Z,4.68
2022-12-15T11:51:57.721Z,4.64
2022-12-15T11:54:28.892Z,4.50
2022-12-15T11:57:14.739Z,4.78
2022-12-15T11:59:52.818Z,4.68
2022-12-15T12:02:28.709Z,4.40
2022-12-15T12:05:04.577Z,4.20
2022-12-15T12:07:45.233Z,4.09
2022-12-15T12:10:37.566Z,3.83
2022-12-15T12:13:05.674Z,4.06
2022-12-15T12:15:47.488Z,4.20
2022-12-15T12:18:21.951Z,4.33
2022-12-15T12:21:08.781Z,3.99
2022-12-15T12:23:43.985Z,4.37
2022-12-15T12:26:10.758Z,3.54
2022-12-15T12:28:48.881Z,3.51
2022-12-15T12:31:42.446Z,4.13
2022-12-15T12:34:14.250Z,3.70
2022-12-15T12:36:44.435Z,3.59
2022-12-15T12:39:21.206Z,3.98
2022-12-15T12:42:08.786Z,4.03
2022-12-15T12:44:38.743Z,3.76
2022-12-15T12:47:10.794Z,3.40
2022-12-15T12:49:42.211Z,4.24
2022-12-15T12:52:18.857Z,4.67
2022-12-15T12:54:52.862Z,4.18
2022-12-15T12:57:31.179Z,4.23
2022-12-15T12:59:58.065Z,4.00
2022-12-15T13:02:26.274Z,4.04
2022-12-15T13:05:03.227Z,4.25
2022-12-15T13:07:32.344Z,4.30
2022-12-15T13:10:17.705Z,3.95
2022-12-15T13:15:45.807Z,4.28
2022-12-15T13:18:22.787Z,4.06
2022-12-15T13:20:53.770Z,4.02
2022-12-15T13:23:20.415Z,4.43
2022-12-15T13:25:55.980Z,4.05
2022-12-15T13:28:35.223Z,3.99
2022-12-15T13:31:19.300Z,4.42
2022-12-15T13:33:49.430Z,4.90
2022-12-15T13:36:55.073Z,4.17
2022-12-15T13:39:22.417Z,4.21
2022-12-15T13:44:45.603Z,4.86
2022-12-15T13:47:19.052Z,4.88
2022-12-15T13:49:53.266Z,4.89
2022-12-15T13:52:44.196Z,4.45
2022-12-15T13:55:27.879Z,4.44
2022-12-15T13:57:57.615Z,4.47
2022-12-15T14:00:24.502Z,4.71
2022-12-15T14:02:53.519Z,4.59
2022-12-15T14:05:22.515Z,4.97
2022-12-15T14:10:42.046Z,5.35
2022-12-15T14:13:16.129Z,5.54
2022-12-15T14:15:45.938Z,5.35
2022-12-15T14:18:41.044Z,5.65
2022-12-15T14:21:19.654Z,4.93
2022-12-15T14:26:33.356Z,4.75
2022-12-15T14:29:05.630Z,4.78
2022-12-15T14:31:32.611Z,4.28
2022-12-15T14:34:18.929Z,4.30
2022-12-15T14:36:46.244Z,5.13
2022-12-15T14:39:18.850Z,4.72
2022-12-15T14:41:49.012Z,4.86
2022-12-15T14:44:31.907Z,4.47
2022-12-15T14:47:16.987Z,3.93
2022-12-15T14:49:47.987Z,4.08
2022-12-15T14:52:22.618Z,4.43
2022-12-15T14:55:18.191Z,3.81
2022-12-15T14:57:45.785Z,3.75
2022-12-15T15:00:23.754Z,3.98
2022-12-15T15:02:50.468Z,3.86
2022-12-15T15:03:09.322Z,4.40
2022-12-15T15:05:42.154Z,3.79
2022-12-15T15:08:15.964Z,3.89
2022-12-15T15:10:47.772Z,3.30
2022-12-15T15:13:21.865Z,3.72
2022-12-15T15:15:56.488Z,3.89
2022-12-15T15:18:27.881Z,3.64
2022-12-15T15:21:05.632Z,4.11
2022-12-15T15:23:34.710Z,4.56
2022-12-15T15:26:04.346Z,4.64
2022-12-15T15:28:41.576Z,4.53
2022-12-15T15:31:36.669Z,4.94
2022-12-15T15:34:09.064Z,5.19
2022-12-15T15:36:37.503Z,5.41
2022-12-15T15:39:10.463Z,5.55
2022-12-15T15:41:37.243Z,5.12
2022-12-15T15:44:09.315Z,5.05
2022-12-15T15:46:45.223Z,5.08
2022-12-15T15:49:18.467Z,4.70
2022-12-15T15:51:45.534Z,4.43
2022-12-15T15:54:17.724Z,4.72
2022-12-15T15:56:44.429Z,4.19
2022-12-15T15:59:13.025Z,4.65
2022-12-15T16:01:42.086Z,5.11
2022-12-15T16:04:09.282Z,5.21
2022-12-15T16:06:36.340Z,5.13
2022-12-15T16:09:03.608Z,4.57
2022-12-15T16:11:33.264Z,4.46
2022-12-15T16:14:01.674Z,4.67
2022-12-15T16:16:31.451Z,4.90
2022-12-15T16:19:00.184Z,5.53
2022-12-15T16:21:27.925Z,5.37
2022-12-15T16:23:55.502Z,5.15
2022-12-15T16:26:26.086Z,5.00
2022-12-15T16:28:53.045Z,5.57
2022-12-15T16:31:41.459Z,5.26
2022-12-15T16:34:10.783Z,5.30
2022-12-15T16:36:37.583Z,4.72
2022-12-15T16:39:04.554Z,5.20
2022-12-15T16:41:31.241Z,5.19
2022-12-15T16:43:58.821Z,5.33
2022-12-15T16:46:28.232Z,5.72
2022-12-15T16:48:55.014Z,5.97
2022-12-15T16:51:42.373Z,5.00
2022-12-15T16:54:14.782Z,5.67
2022-12-15T16:56:42.725Z,5.03
2022-12-15T16:59:32.608Z,4.59
2022-12-15T17:02:04.397Z,5.04
2022-12-15T17:04:31.151Z,5.21
2022-12-15T17:06:57.904Z,4.77
2022-12-15T17:09:25.758Z,4.58
2022-12-15T17:11:52.659Z,5.09
2022-12-15T17:14:19.412Z,4.24
2022-12-15T17:16:46.179Z,4.00
2022-12-15T17:19:17.569Z,3.37
2022-12-15T17:21:53.154Z,4.17
2022-12-15T17:24:20.845Z,4.87
2022-12-15T17:26:47.712Z,5.20
2022-12-15T17:29:17.018Z,4.38
2022-12-15T17:31:43.891Z,4.43
2022-12-15T17:34:19.756Z,5.11
2022-12-15T17:36:46.460Z,5.06
2022-12-15T17:39:14.738Z,5.07
2022-12-15T17:44:38.389Z,4.91
2022-12-15T17:47:08.976Z,5.44
2022-12-15T17:49:38.604Z,4.65
2022-12-15T17:52:18.067Z,5.08
2022-12-15T17:54:44.879Z,4.89
2022-12-15T17:57:11.873Z,5.04
2022-12-15T17:59:38.554Z,4.86
2022-12-15T18:02:05.298Z,5.37
2022-12-15T18:04:32.207Z,5.67
2022-12-15T18:07:01.950Z,5.85
2022-12-15T18:09:29.379Z,5.21
2022-12-15T18:11:56.142Z,5.49
2022-12-15T18:14:23.162Z,5.62
2022-12-15T18:16:50.070Z,5.75
2022-12-15T18:19:17.056Z,5.12
2022-12-15T18:21:43.899Z,5.43
2022-12-15T18:24:15.660Z,5.50
2022-12-15T18:26:43.091Z,5.31
2022-12-15T18:29:11.769Z,5.16
2022-12-15T18:31:38.518Z,5.55
2022-12-15T18:34:10.651Z,5.32
2022-12-15T18:36:37.504Z,5.90
2022-12-15T18:39:17.630Z,5.77
2022-12-15T18:41:44.482Z,5.33
2022-12-15T18:44:24.744Z,5.07
2022-12-15T18:46:52.089Z,5.13
2022-12-15T18:49:20.912Z,5.58
2022-12-15T18:51:48.171Z,5.75
2022-12-15T18:54:19.735Z,5.06
2022-12-15T18:56:46.496Z,4.87
2022-12-15T18:59:17.269Z,4.47
2022-12-15T19:01:45.765Z,5.19
2022-12-15T19:04:13.060Z,5.33
2022-12-15T19:06:40.672Z,4.98
2022-12-15T19:09:19.374Z,4.84
2022-12-15T19:12:10.761Z,5.15
2022-12-15T19:14:43.470Z,4.85
2022-12-15T19:17:29.441Z,5.09
2022-12-15T19:20:14.424Z,4.46
2022-12-15T19:22:41.467Z,4.59
2022-12-15T19:25:11.023Z,4.33
2022-12-15T19:27:37.668Z,4.63
2022-12-15T19:30:14.298Z,4.65
2022-12-15T19:32:40.958Z,4.97
2022-12-15T19:35:07.787Z,4.68
2022-12-15T19:37:35.873Z,4.14
2022-12-15T19:40:02.848Z,4.92
2022-12-15T19:42:37.365Z,5.05
2022-12-15T19:45:15.314Z,5.07
2022-12-15T19:47:42.003Z,5.09
2022-12-15T19:50:13.085Z,5.18
2022-12-15T19:52:40.126Z,5.45
2022-12-15T19:55:08.711Z,5.22
2022-12-15T19:57:35.424Z,5.34
2022-12-15T20:00:02.413Z,5.17
2022-12-15T20:02:29.350Z,5.63
2022-12-15T20:04:56.353Z,4.39
2022-12-15T20:07:27.313Z,4.26
2022-12-15T20:09:54.170Z,4.81
2022-12-15T20:12:22.393Z,4.23
2022-12-15T20:14:49.102Z,4.64
2022-12-15T20:17:15.847Z,4.57
2022-12-15T20:19:42.744Z,4.48
2022-12-15T20:22:14.128Z,4.29
2022-12-15T20:24:41.130Z,4.21
2022-12-15T20:27:15.485Z,4.32
2022-12-15T20:29:43.806Z,4.17
2022-12-15T20:32:15.546Z,4.07
2022-12-15T20:34:42.817Z,4.30
2022-12-15T20:37:28.447Z,4.08
2022-12-15T20:39:57.605Z,4.76
2022-12-15T20:42:24.895Z,3.99
2022-12-15T20:44:51.923Z,4.34
2022-12-15T20:47:26.290Z,4.70
2022-12-15T20:49:54.488Z,4.75
2022-12-15T20:52:23.095Z,4.47
2022-12-15T20:54:50.245Z,4.62
2022-12-15T20:57:17.106Z,4.93
2022-12-15T20:59:44.887Z,4.86
2022-12-15T21:02:19.039Z,4.12
2022-12-15T21:04:46.328Z,3.86
2022-12-15T21:07:13.565Z,4.20
2022-12-15T21:09:40.734Z,4.15
2022-12-15T21:12:16.570Z,3.79
2022-12-15T21:14:43.390Z,3.72
2022-12-15T21:17:21.826Z,3.85
2022-12-15T21:19:49.025Z,4.45
2022-12-15T21:22:20.210Z,4.31
2022-12-15T21:24:47.561Z,4.51
2022-12-15T21:27:17.642Z,4.47
2022-12-15T21:29:50.417Z,4.16
2022-12-15T21:32:19.152Z,4.19
2022-12-15T21:34:45.873Z,4.29
2022-12-15T21:37:27.044Z,4.09
2022-12-15T21:39:54.255Z,4.08
2022-12-15T21:42:21.970Z,3.99
2022-12-15T21:44:48.725Z,4.04
2022-12-15T21:47:24.975Z,4.08
2022-12-15T21:49:51.849Z,4.16
2022-12-15T21:52:19.681Z,4.18
2022-12-15T21:54:46.426Z,4.39
2022-12-15T21:57:13.207Z,4.68
2022-12-15T21:59:40.075Z,5.02
2022-12-15T22:02:36.258Z,4.89
2022-12-15T22:05:03.339Z,5.02
2022-12-15T22:07:31.396Z,5.55
2022-12-15T22:09:58.563Z,5.26
2022-12-15T22:12:25.268Z,5.03
2022-12-15T22:14:52.229Z,5.19
2022-12-15T22:17:20.482Z,5.33
2022-12-15T22:19:47.826Z,4.79
2022-12-15T22:22:14.723Z,4.92
2022-12-15T22:24:41.696Z,4.88
2022-12-15T22:27:28.779Z,5.20
2022-12-15T22:29:56.843Z,4.72
2022-12-15T22:32:23.509Z,4.62
2022-12-15T22:34:50.306Z,4.41
2022-12-15T22:37:18.661Z,4.57
2022-12-15T22:39:45.647Z,4.63
2022-12-15T22:42:16.380Z,4.99
2022-12-15T22:44:43.257Z,5.11
2022-12-15T22:47:10.843Z,5.01
2022-12-15T22:49:39.051Z,4.32
2022-12-15T22:52:19.278Z,3.93
2022-12-15T22:54:46.425Z,4.17
2022-12-15T22:57:23.953Z,4.46
2022-12-15T22:59:53.323Z,4.27
2022-12-15T23:02:21.624Z,4.23
2022-12-15T23:04:48.426Z,4.47
2022-12-15T23:07:15.230Z,4.58
2022-12-15T23:09:41.986Z,4.79
2022-12-15T23:12:08.668Z,4.73
2022-12-15T23:14:53.938Z,4.46
2022-12-15T23:17:21.713Z,3.86
2022-12-15T23:19:48.414Z,4.20
2022-12-15T23:22:15.214Z,4.79
2022-12-15T23:24:42.109Z,4.31
2022-12-15T23:27:12.131Z,4.78
2022-12-15T23:29:38.800Z,5.07
2022-12-15T23:32:06.184Z,4.67
2022-12-15T23:34:32.926Z,4.65
2022-12-15T23:36:59.640Z,4.49
2022-12-15T23:39:26.352Z,4.48
2022-12-15T23:41:53.083Z,4.81
2022-12-15T23:44:20.184Z,4.67
2022-12-15T23:46:47.047Z,4.53
2022-12-15T23:49:13.908Z,4.78
2022-12-15T23:51:40.634Z,4.91
2022-12-15T23:54:07.276Z,4.97
2022-12-15T23:56:34.082Z,4.75
2022-12-15T23:59:00.752Z,4.37
